createdAt,value
2023-08-06T00:00:01.422Z,16.68
2023-08-06T00:02:28.589Z,16.66
2023-08-06T00:04:55.710Z,16.62
2023-08-06T00:07:22.847Z,16.56
2023-08-06T00:09:49.926Z,16.56
2023-08-06T00:12:16.993Z,16.55
2023-08-06T00:14:44.260Z,16.56
2023-08-06T00:17:11.570Z,16.53
2023-08-06T00:19:38.900Z,16.56
2023-08-06T00:22:06.179Z,16.46
2023-08-06T00:24:33.344Z,16.43
2023-08-06T00:27:00.600Z,16.40
2023-08-06T00:29:27.689Z,16.35
2023-08-06T00:32:01.143Z,16.26
2023-08-06T00:34:28.214Z,16.24
2023-08-06T00:36:55.533Z,16.30
2023-08-06T00:39:22.986Z,16.30
2023-08-06T00:41:51.086Z,16.30
2023-08-06T00:44:18.698Z,16.23
2023-08-06T00:46:46.132Z,16.24
2023-08-06T00:49:13.357Z,16.25
2023-08-06T00:51:40.795Z,16.28
2023-08-06T00:54:07.989Z,16.32
2023-08-06T00:56:39.413Z,16.31
2023-08-06T00:59:07.789Z,16.32
2023-08-06T01:01:34.919Z,16.38
2023-08-06T01:04:02.424Z,16.41
2023-08-06T01:06:45.627Z,16.41
2023-08-06T01:09:44.018Z,16.39
2023-08-06T01:12:14.087Z,16.29
2023-08-06T01:15:12.867Z,16.25
2023-08-06T01:17:41.610Z,16.14
2023-08-06T01:20:09.177Z,16.06
2023-08-06T01:22:36.288Z,16.18
2023-08-06T01:25:04.104Z,16.15
2023-08-06T01:27:49.100Z,16.11
2023-08-06T01:30:30.809Z,15.96
2023-08-06T01:33:02.039Z,15.93
2023-08-06T01:35:31.550Z,15.97
2023-08-06T01:38:01.235Z,16.04
2023-08-06T01:40:30.778Z,16.08
2023-08-06T01:42:58.061Z,16.12
2023-08-06T01:45:25.164Z,16.11
2023-08-06T01:47:52.572Z,16.06
2023-08-06T01:50:20.072Z,16.03
2023-08-06T01:52:47.171Z,16.00
2023-08-06T01:55:14.378Z,16.04
2023-08-06T01:57:41.578Z,16.07
2023-08-06T02:00:09.278Z,15.96
2023-08-06T02:02:42.639Z,15.92
2023-08-06T02:05:10.742Z,15.86
2023-08-06T02:07:40.636Z,15.78
2023-08-06T02:10:08.548Z,15.83
2023-08-06T02:12:35.727Z,15.88
2023-08-06T02:15:02.932Z,15.85
2023-08-06T02:17:30.091Z,15.81
2023-08-06T02:19:57.297Z,15.83
2023-08-06T02:22:24.608Z,15.73
2023-08-06T02:24:51.964Z,15.68
2023-08-06T02:27:19.194Z,15.73
2023-08-06T02:29:46.366Z,15.78
2023-08-06T02:32:13.539Z,15.85
2023-08-06T02:34:40.773Z,15.73
2023-08-06T02:37:08.598Z,15.80
2023-08-06T02:39:37.009Z,15.78
2023-08-06T02:42:04.585Z,15.74
2023-08-06T02:44:32.529Z,15.68
2023-08-06T02:46:59.863Z,15.71
2023-08-06T02:49:27.392Z,15.71
2023-08-06T02:51:54.858Z,15.60
2023-08-06T02:54:22.405Z,15.58
2023-08-06T02:56:49.709Z,15.56
2023-08-06T02:59:23.794Z,15.49
2023-08-06T03:02:00.134Z,15.46
2023-08-06T03:04:36.593Z,15.34
2023-08-06T03:07:03.789Z,15.33
2023-08-06T03:09:39.176Z,15.20
2023-08-06T03:12:07.515Z,15.08
2023-08-06T03:14:34.668Z,15.01
2023-08-06T03:17:03.045Z,15.02
2023-08-06T03:19:30.338Z,15.03
2023-08-06T03:21:57.860Z,15.05
2023-08-06T03:24:25.654Z,15.09
2023-08-06T03:26:52.780Z,15.14
2023-08-06T03:29:20.148Z,15.05
2023-08-06T03:31:48.130Z,14.92
2023-08-06T03:34:17.458Z,14.82
2023-08-06T03:36:44.602Z,14.88
2023-08-06T03:39:11.809Z,14.90
2023-08-06T03:41:39.169Z,14.87
2023-08-06T03:44:06.354Z,14.88
2023-08-06T03:46:35.384Z,14.80
2023-08-06T03:49:05.513Z,14.91
2023-08-06T03:51:32.747Z,14.89
2023-08-06T03:54:00.852Z,14.86
2023-08-06T03:56:28.807Z,14.82
2023-08-06T03:58:55.954Z,14.82
2023-08-06T04:01:24.786Z,14.74
2023-08-06T04:03:53.327Z,14.81
2023-08-06T04:06:20.675Z,14.77
2023-08-06T04:08:47.716Z,14.75
2023-08-06T04:11:15.218Z,14.75
2023-08-06T04:13:46.331Z,14.77
2023-08-06T04:16:14.635Z,14.70
2023-08-06T04:18:42.669Z,14.63
2023-08-06T04:21:09.962Z,14.62
2023-08-06T04:23:37.159Z,14.65
2023-08-06T04:26:07.243Z,14.67
2023-08-06T04:28:36.669Z,14.71
2023-08-06T04:31:04.123Z,14.66
2023-08-06T04:33:34.036Z,14.60
2023-08-06T04:36:06.591Z,14.55
2023-08-06T04:38:34.729Z,14.55
2023-08-06T04:41:04.791Z,14.52
2023-08-06T04:43:32.175Z,14.53
2023-08-06T04:45:59.575Z,14.47
2023-08-06T04:48:26.850Z,14.40
2023-08-06T04:50:54.308Z,14.43
2023-08-06T04:53:21.545Z,14.47
2023-08-06T04:55:48.774Z,14.50
2023-08-06T04:58:16.112Z,14.47
2023-08-06T05:00:43.784Z,14.55
2023-08-06T05:03:11.029Z,14.66
2023-08-06T05:05:38.153Z,14.59
2023-08-06T05:08:05.239Z,14.52
2023-08-06T05:10:38.313Z,14.49
2023-08-06T05:13:05.389Z,14.51
2023-08-06T05:15:32.527Z,14.49
2023-08-06T05:17:59.897Z,14.49
2023-08-06T05:20:27.047Z,14.52
2023-08-06T05:22:54.195Z,14.58
2023-08-06T05:25:21.625Z,14.58
2023-08-06T05:27:48.753Z,14.50
2023-08-06T05:30:15.776Z,14.55
2023-08-06T05:32:43.127Z,14.52
2023-08-06T05:35:10.324Z,14.53
2023-08-06T05:37:37.433Z,14.56
2023-08-06T05:40:05.356Z,14.53
2023-08-06T05:42:32.618Z,14.58
2023-08-06T05:44:59.742Z,14.64
2023-08-06T05:47:26.924Z,14.68
2023-08-06T05:49:54.042Z,14.73
2023-08-06T05:52:21.230Z,14.77
2023-08-06T05:54:48.269Z,14.76
2023-08-06T05:57:15.407Z,14.58
2023-08-06T05:59:42.730Z,14.64
2023-08-06T06:02:09.869Z,14.65
2023-08-06T06:04:36.911Z,14.76
2023-08-06T06:07:04.329Z,14.85
2023-08-06T06:09:31.462Z,14.90
2023-08-06T06:11:58.480Z,14.95
2023-08-06T06:14:25.676Z,14.99
2023-08-06T06:16:54.902Z,14.99
2023-08-06T06:19:21.942Z,14.91
2023-08-06T06:21:49.168Z,14.89
2023-08-06T06:24:16.691Z,14.99
2023-08-06T06:26:43.970Z,15.03
2023-08-06T06:29:11.125Z,15.09
2023-08-06T06:31:38.214Z,15.03
2023-08-06T06:34:05.394Z,15.06
2023-08-06T06:36:32.468Z,14.93
2023-08-06T06:38:59.517Z,15.00
2023-08-06T06:41:27.723Z,15.01
2023-08-06T06:44:03.017Z,15.02
2023-08-06T06:46:31.694Z,15.06
2023-08-06T06:48:58.767Z,15.03
2023-08-06T06:51:25.927Z,15.04
2023-08-06T06:53:54.192Z,15.00
2023-08-06T06:56:21.367Z,14.99
2023-08-06T06:58:48.619Z,14.96
2023-08-06T07:01:16.362Z,15.06
2023-08-06T07:03:43.758Z,15.07
2023-08-06T07:06:10.928Z,15.12
2023-08-06T07:08:37.956Z,15.36
2023-08-06T07:11:06.908Z,15.49
2023-08-06T07:13:35.892Z,15.38
2023-08-06T07:16:03.959Z,15.43
2023-08-06T07:18:31.184Z,15.62
2023-08-06T07:20:58.213Z,15.50
2023-08-06T07:23:27.146Z,15.48
2023-08-06T07:25:54.552Z,15.52
2023-08-06T07:28:21.892Z,15.45
2023-08-06T07:30:49.232Z,15.47
2023-08-06T07:33:16.430Z,15.49
2023-08-06T07:35:44.605Z,15.55
2023-08-06T07:38:12.003Z,15.64
2023-08-06T07:40:40.082Z,15.68
2023-08-06T07:43:07.354Z,15.70
2023-08-06T07:45:38.319Z,15.71
2023-08-06T07:48:05.961Z,15.85
2023-08-06T07:50:33.543Z,15.81
2023-08-06T07:53:00.756Z,15.70
2023-08-06T07:55:27.983Z,15.59
2023-08-06T07:57:55.659Z,15.62
2023-08-06T08:00:22.871Z,15.68
2023-08-06T08:02:50.222Z,15.70
2023-08-06T08:05:17.527Z,16.06
2023-08-06T08:07:45.602Z,16.25
2023-08-06T08:10:12.963Z,16.38
2023-08-06T08:12:40.202Z,16.11
2023-08-06T08:15:07.792Z,16.11
2023-08-06T08:17:36.098Z,16.08
2023-08-06T08:20:04.064Z,16.17
2023-08-06T08:22:31.209Z,16.10
2023-08-06T08:24:58.455Z,16.28
2023-08-06T08:27:25.770Z,16.35
2023-08-06T08:29:52.961Z,16.28
2023-08-06T08:32:20.012Z,16.37
2023-08-06T08:34:47.139Z,16.20
2023-08-06T08:37:15.006Z,15.86
2023-08-06T08:39:42.122Z,15.85
2023-08-06T08:42:11.259Z,15.87
2023-08-06T08:44:40.674Z,15.83
2023-08-06T08:47:17.667Z,15.66
2023-08-06T08:49:46.210Z,15.69
2023-08-06T08:52:16.375Z,15.63
2023-08-06T08:54:45.832Z,15.35
2023-08-06T08:57:12.970Z,15.17
2023-08-06T08:59:40.159Z,15.05
2023-08-06T09:02:10.986Z,14.88
2023-08-06T09:04:38.720Z,14.90
2023-08-06T09:07:07.005Z,14.97
2023-08-06T09:09:38.235Z,14.91
2023-08-06T09:12:16.948Z,14.95
2023-08-06T09:14:44.499Z,15.00
2023-08-06T09:17:14.524Z,15.06
2023-08-06T09:19:49.604Z,15.05
2023-08-06T09:22:17.159Z,15.09
2023-08-06T09:24:45.241Z,15.16
2023-08-06T09:27:16.375Z,15.15
2023-08-06T09:29:44.739Z,15.13
2023-08-06T09:32:12.688Z,15.06
2023-08-06T09:34:47.488Z,14.92
2023-08-06T09:37:14.627Z,14.88
2023-08-06T09:39:42.764Z,14.94
2023-08-06T09:42:09.962Z,14.88
2023-08-06T09:44:37.083Z,14.71
2023-08-06T09:47:05.452Z,14.68
2023-08-06T09:49:38.407Z,14.63
2023-08-06T09:52:06.987Z,14.54
2023-08-06T09:54:36.466Z,14.55
2023-08-06T09:57:04.325Z,14.60
2023-08-06T09:59:32.388Z,14.59
2023-08-06T10:02:00.657Z,14.52
2023-08-06T10:04:33.095Z,14.64
2023-08-06T10:07:08.610Z,14.69
2023-08-06T10:09:35.898Z,14.68
2023-08-06T10:12:03.087Z,14.69
2023-08-06T10:14:34.735Z,14.75
2023-08-06T10:17:02.844Z,14.69
2023-08-06T10:19:32.160Z,14.82
2023-08-06T10:22:18.224Z,14.71
2023-08-06T10:24:53.460Z,14.84
2023-08-06T10:27:35.283Z,14.90
2023-08-06T10:30:27.918Z,14.97
2023-08-06T10:32:58.522Z,14.91
2023-08-06T10:35:51.464Z,14.86
2023-08-06T10:38:24.023Z,15.01
2023-08-06T10:40:54.439Z,15.07
2023-08-06T10:43:29.645Z,15.01
2023-08-06T10:45:58.886Z,15.11
2023-08-06T10:48:37.726Z,15.15
2023-08-06T10:51:10.010Z,15.23
2023-08-06T10:53:37.632Z,15.25
2023-08-06T10:56:15.804Z,15.36
2023-08-06T10:58:44.582Z,15.54
2023-08-06T11:01:15.093Z,15.58
2023-08-06T11:03:44.475Z,15.56
2023-08-06T11:06:20.826Z,15.37
2023-08-06T11:08:55.215Z,15.22
2023-08-06T11:11:24.422Z,15.21
2023-08-06T11:13:52.919Z,15.16
2023-08-06T11:16:23.255Z,15.32
2023-08-06T11:18:50.721Z,15.43
2023-08-06T11:21:26.030Z,15.52
2023-08-06T11:23:54.616Z,15.63
2023-08-06T11:26:22.718Z,15.59
2023-08-06T11:28:50.661Z,15.68
2023-08-06T11:31:25.365Z,15.65
2023-08-06T11:33:53.912Z,15.68
2023-08-06T11:36:34.729Z,15.65
2023-08-06T11:39:02.432Z,15.79
2023-08-06T11:41:30.757Z,15.90
2023-08-06T11:43:58.439Z,15.92
2023-08-06T11:46:27.292Z,15.64
2023-08-06T11:48:56.965Z,15.60
2023-08-06T11:51:28.357Z,15.61
2023-08-06T11:53:59.720Z,15.47
2023-08-06T11:56:30.115Z,15.55
2023-08-06T11:58:58.582Z,15.45
2023-08-06T12:01:27.529Z,15.31
2023-08-06T12:04:00.369Z,15.31
2023-08-06T12:06:31.012Z,15.51
2023-08-06T12:09:00.699Z,15.61
2023-08-06T12:11:27.991Z,15.51
2023-08-06T12:13:58.217Z,15.60
2023-08-06T12:16:25.453Z,15.47
2023-08-06T12:18:52.687Z,15.35
2023-08-06T12:21:20.723Z,15.35
2023-08-06T12:23:47.997Z,15.43
2023-08-06T12:26:15.137Z,15.32
2023-08-06T12:28:42.706Z,15.31
2023-08-06T12:31:10.021Z,15.40
2023-08-06T12:33:38.428Z,15.40
2023-08-06T12:36:05.935Z,15.23
2023-08-06T12:38:35.300Z,15.23
2023-08-06T12:41:02.734Z,15.36
2023-08-06T12:43:29.738Z,15.35
2023-08-06T12:45:56.921Z,15.30
2023-08-06T12:48:26.826Z,15.40
2023-08-06T12:50:54.166Z,15.28
2023-08-06T12:53:22.520Z,15.29
2023-08-06T12:55:49.803Z,15.21
2023-08-06T12:58:16.915Z,15.26
2023-08-06T13:00:44.009Z,15.49
2023-08-06T13:03:11.626Z,15.61
2023-08-06T13:05:38.996Z,15.81
2023-08-06T13:08:08.585Z,15.88
2023-08-06T13:10:35.804Z,15.83
2023-08-06T13:13:03.179Z,15.82
2023-08-06T13:15:30.364Z,16.00
2023-08-06T13:17:57.654Z,16.32
2023-08-06T13:20:24.863Z,16.76
2023-08-06T13:22:54.494Z,16.70
2023-08-06T13:25:21.725Z,16.62
2023-08-06T13:27:49.266Z,16.50
2023-08-06T13:30:17.735Z,16.42
2023-08-06T13:32:45.856Z,16.18
2023-08-06T13:35:13.073Z,16.09
2023-08-06T13:37:41.027Z,16.07
2023-08-06T13:40:09.874Z,15.99
2023-08-06T13:42:36.943Z,16.22
2023-08-06T13:45:05.209Z,16.22
2023-08-06T13:47:32.366Z,16.54
2023-08-06T13:49:59.857Z,16.62
2023-08-06T13:52:27.934Z,16.70
2023-08-06T13:54:55.021Z,16.65
2023-08-06T13:57:22.160Z,16.50
2023-08-06T13:59:49.607Z,16.42
2023-08-06T14:02:16.821Z,16.53
2023-08-06T14:04:44.138Z,16.53
2023-08-06T14:07:11.396Z,16.58
2023-08-06T14:09:38.514Z,16.12
2023-08-06T14:12:06.603Z,16.03
2023-08-06T14:14:33.867Z,15.91
2023-08-06T14:17:01.433Z,15.98
2023-08-06T14:19:28.787Z,16.40
2023-08-06T14:21:56.790Z,16.59
2023-08-06T14:24:24.573Z,16.79
2023-08-06T14:26:53.400Z,16.81
2023-08-06T14:29:21.250Z,16.72
2023-08-06T14:31:48.456Z,16.33
2023-08-06T14:34:15.750Z,16.26
2023-08-06T14:36:43.001Z,16.15
2023-08-06T14:39:10.234Z,16.04
2023-08-06T14:41:37.419Z,15.94
2023-08-06T14:44:04.638Z,15.54
2023-08-06T14:46:31.928Z,15.12
2023-08-06T14:48:59.262Z,14.88
2023-08-06T14:51:26.359Z,14.65
2023-08-06T14:53:53.518Z,14.66
2023-08-06T14:56:20.662Z,14.70
2023-08-06T14:58:47.858Z,14.86
2023-08-06T15:01:15.038Z,14.89
2023-08-06T15:03:42.109Z,15.03
2023-08-06T15:06:09.290Z,15.09
2023-08-06T15:08:36.437Z,15.15
2023-08-06T15:11:04.211Z,15.21
2023-08-06T15:13:31.699Z,14.96
2023-08-06T15:15:58.909Z,15.01
2023-08-06T15:18:26.174Z,14.98
2023-08-06T15:20:53.468Z,15.03
2023-08-06T15:23:20.994Z,14.99
2023-08-06T15:25:48.328Z,15.03
2023-08-06T15:28:15.613Z,14.99
2023-08-06T15:30:50.955Z,15.01
2023-08-06T15:33:20.371Z,15.08
2023-08-06T15:35:47.966Z,15.20
2023-08-06T15:38:16.103Z,15.23
2023-08-06T15:40:45.956Z,15.39
2023-08-06T15:43:13.419Z,15.49
2023-08-06T15:45:41.903Z,15.58
2023-08-06T15:48:10.414Z,15.62
2023-08-06T15:50:41.275Z,15.58
2023-08-06T15:53:12.257Z,15.63
2023-08-06T15:55:39.740Z,15.45
2023-08-06T15:58:07.192Z,15.60
2023-08-06T16:00:35.833Z,15.60
2023-08-06T16:03:05.402Z,15.53
2023-08-06T16:05:32.765Z,15.44
2023-08-06T16:08:02.778Z,15.35
2023-08-06T16:10:30.111Z,15.24
2023-08-06T16:13:00.296Z,15.12
2023-08-06T16:15:27.631Z,15.16
2023-08-06T16:17:54.993Z,15.07
2023-08-06T16:20:22.545Z,14.96
2023-08-06T16:22:49.940Z,14.97
2023-08-06T16:25:17.056Z,14.90
2023-08-06T16:27:44.151Z,14.75
2023-08-06T16:30:13.692Z,14.77
2023-08-06T16:32:40.937Z,14.77
2023-08-06T16:35:10.509Z,14.79
2023-08-06T16:37:38.000Z,14.72
2023-08-06T16:40:06.329Z,14.57
2023-08-06T16:42:33.480Z,14.60
2023-08-06T16:45:00.575Z,14.61
2023-08-06T16:47:27.829Z,14.58
2023-08-06T16:49:55.073Z,14.57
2023-08-06T16:52:22.241Z,14.62
2023-08-06T16:54:50.867Z,14.51
2023-08-06T16:57:17.992Z,14.54
2023-08-06T16:59:45.124Z,14.49
2023-08-06T17:02:12.511Z,14.56
2023-08-06T17:04:39.670Z,14.57
2023-08-06T17:07:06.899Z,14.63
2023-08-06T17:09:34.053Z,14.65
2023-08-06T17:12:01.243Z,14.67
2023-08-06T17:14:28.334Z,14.64
2023-08-06T17:16:55.616Z,14.60
2023-08-06T17:19:22.941Z,14.61
2023-08-06T17:21:50.070Z,14.65
2023-08-06T17:24:17.143Z,14.61
2023-08-06T17:26:44.787Z,14.54
2023-08-06T17:29:11.999Z,14.62
2023-08-06T17:31:40.253Z,14.58
2023-08-06T17:34:07.730Z,14.59
2023-08-06T17:36:34.889Z,14.52
2023-08-06T17:39:02.882Z,14.40
2023-08-06T17:41:30.064Z,14.36
2023-08-06T17:43:58.067Z,14.35
2023-08-06T17:46:28.184Z,14.25
2023-08-06T17:48:57.044Z,14.20
2023-08-06T17:51:24.780Z,14.16
2023-08-06T17:53:52.952Z,14.26
2023-08-06T17:56:20.347Z,14.12
2023-08-06T17:58:47.758Z,14.12
2023-08-06T18:01:15.235Z,14.14
2023-08-06T18:03:42.606Z,14.08
2023-08-06T18:06:09.837Z,14.02
2023-08-06T18:08:37.020Z,14.10
2023-08-06T18:11:04.236Z,14.08
2023-08-06T18:13:31.496Z,14.11
2023-08-06T18:15:59.205Z,14.11
2023-08-06T18:18:26.650Z,14.04
2023-08-06T18:20:53.837Z,14.05
2023-08-06T18:23:21.238Z,13.92
2023-08-06T18:25:48.471Z,13.93
2023-08-06T18:28:16.019Z,13.86
2023-08-06T18:30:43.466Z,13.96
2023-08-06T18:33:10.689Z,13.89
2023-08-06T18:35:38.386Z,13.94
2023-08-06T18:38:05.661Z,13.91
2023-08-06T18:40:32.841Z,13.95
2023-08-06T18:43:02.595Z,13.87
2023-08-06T18:45:30.039Z,13.79
2023-08-06T18:47:57.350Z,13.78
2023-08-06T18:50:25.121Z,13.70
2023-08-06T18:52:52.575Z,13.69
2023-08-06T18:55:19.840Z,13.69
2023-08-06T18:57:47.226Z,13.57
2023-08-06T19:00:14.586Z,13.57
2023-08-06T19:02:41.952Z,13.66
2023-08-06T19:05:09.862Z,13.52
2023-08-06T19:07:37.123Z,13.51
2023-08-06T19:10:05.853Z,13.52
2023-08-06T19:12:33.247Z,13.45
2023-08-06T19:15:00.449Z,13.49
2023-08-06T19:17:27.735Z,13.52
2023-08-06T19:19:55.093Z,13.46
2023-08-06T19:22:22.324Z,13.42
2023-08-06T19:24:49.576Z,13.48
2023-08-06T19:27:17.150Z,13.45
2023-08-06T19:29:44.407Z,13.35
2023-08-06T19:32:11.845Z,13.38
2023-08-06T19:34:41.937Z,13.41
2023-08-06T19:37:09.174Z,13.36
2023-08-06T19:39:36.318Z,13.41
2023-08-06T19:42:03.531Z,13.27
2023-08-06T19:44:30.681Z,13.29
2023-08-06T19:46:57.988Z,13.33
2023-08-06T19:49:25.194Z,13.22
2023-08-06T19:51:52.437Z,13.25
2023-08-06T19:54:19.695Z,13.18
2023-08-06T19:56:46.966Z,13.24
2023-08-06T19:59:14.161Z,13.22
2023-08-06T20:01:41.327Z,13.18
2023-08-06T20:04:08.571Z,13.13
2023-08-06T20:06:35.683Z,13.16
2023-08-06T20:09:02.784Z,13.11
2023-08-06T20:11:29.960Z,13.07
2023-08-06T20:13:56.999Z,13.07
2023-08-06T20:16:24.186Z,13.03
2023-08-06T20:18:51.369Z,13.04
2023-08-06T20:21:18.413Z,13.04
2023-08-06T20:23:45.539Z,13.01
2023-08-06T20:26:12.715Z,13.01
2023-08-06T20:28:39.820Z,12.90
2023-08-06T20:31:07.072Z,12.87
2023-08-06T20:33:35.444Z,12.87
2023-08-06T20:36:03.680Z,12.89
2023-08-06T20:38:30.796Z,12.87
2023-08-06T20:40:58.030Z,12.87
2023-08-06T20:43:28.516Z,12.87
2023-08-06T20:45:57.497Z,12.93
2023-08-06T20:48:24.776Z,12.98
2023-08-06T20:50:53.489Z,13.01
2023-08-06T20:53:23.540Z,12.94
2023-08-06T20:56:05.066Z,12.91
2023-08-06T20:58:33.155Z,12.90
2023-08-06T21:01:02.072Z,12.93
2023-08-06T21:03:31.872Z,12.86
2023-08-06T21:06:03.839Z,12.85
2023-08-06T21:08:31.982Z,12.85
2023-08-06T21:11:00.647Z,12.93
2023-08-06T21:13:29.075Z,12.88
2023-08-06T21:16:07.460Z,12.90
2023-08-06T21:18:36.025Z,12.98
2023-08-06T21:21:04.996Z,12.96
2023-08-06T21:23:32.446Z,12.94
2023-08-06T21:26:01.926Z,12.89
2023-08-06T21:28:32.768Z,12.92
2023-08-06T21:31:11.044Z,12.92
2023-08-06T21:33:39.376Z,12.90
2023-08-06T21:36:07.892Z,12.85
2023-08-06T21:38:36.726Z,12.76
2023-08-06T21:41:11.938Z,12.82
2023-08-06T21:43:49.739Z,12.82
2023-08-06T21:46:19.395Z,12.80
2023-08-06T21:48:49.066Z,12.76
2023-08-06T21:51:21.280Z,12.79
2023-08-06T21:53:49.108Z,12.84
2023-08-06T21:56:17.188Z,12.86
2023-08-06T21:58:49.935Z,12.78
2023-08-06T22:01:18.660Z,12.77
2023-08-06T22:03:46.701Z,12.71
2023-08-06T22:06:14.225Z,12.73
2023-08-06T22:08:42.174Z,12.76
2023-08-06T22:11:09.880Z,12.75
2023-08-06T22:13:39.327Z,12.71
2023-08-06T22:16:07.523Z,12.71
2023-08-06T22:18:34.644Z,12.67
2023-08-06T22:21:01.739Z,12.59
2023-08-06T22:23:29.263Z,12.61
2023-08-06T22:25:59.170Z,12.66
2023-08-06T22:28:26.424Z,12.63
2023-08-06T22:30:53.721Z,12.57
2023-08-06T22:33:23.057Z,12.59
2023-08-06T22:35:51.848Z,12.61
2023-08-06T22:38:19.569Z,12.57
2023-08-06T22:40:46.632Z,12.51
2023-08-06T22:43:13.705Z,12.49
2023-08-06T22:45:40.870Z,12.45
2023-08-06T22:48:07.978Z,12.46
2023-08-06T22:50:35.192Z,12.46
2023-08-06T22:53:02.393Z,12.43
2023-08-06T22:55:56.976Z,12.42
2023-08-06T22:58:16.632Z,12.46
2023-08-06T23:00:43.770Z,12.44
2023-08-06T23:03:13.067Z,12.40
2023-08-06T23:05:41.202Z,12.45
2023-08-06T23:08:09.278Z,12.51
2023-08-06T23:10:36.641Z,12.52
2023-08-06T23:13:09.397Z,12.52
2023-08-06T23:15:37.072Z,12.51
2023-08-06T23:18:13.722Z,12.47
2023-08-06T23:20:41.211Z,12.47
2023-08-06T23:23:08.318Z,12.43
2023-08-06T23:25:37.202Z,12.43
2023-08-06T23:28:05.173Z,12.50
2023-08-06T23:30:32.302Z,12.46
2023-08-06T23:32:59.618Z,12.42
2023-08-06T23:35:26.722Z,12.43
2023-08-06T23:37:53.758Z,12.46
2023-08-06T23:40:21.958Z,12.58
2023-08-06T23:42:49.153Z,12.61
2023-08-06T23:45:16.294Z,12.52
2023-08-06T23:47:44.338Z,12.57
2023-08-06T23:50:11.531Z,12.54
2023-08-06T23:52:38.664Z,12.54
2023-08-06T23:55:06.074Z,12.46
2023-08-06T23:57:33.115Z,12.54
